sensor_id;sensor_type;location;lat;lon;timestamp;temperature;humidity
32614;DHT22;19031;51.400;6.770;2022-07-24T00:01:33;18.00;67.70
32614;DHT22;19031;51.400;6.770;2022-07-24T00:03:59;18.00;65.00
32614;DHT22;19031;51.400;6.770;2022-07-24T00:06:24;18.00;62.10
32614;DHT22;19031;51.400;6.770;2022-07-24T00:08:50;17.90;66.00
32614;DHT22;19031;51.400;6.770;2022-07-24T00:11:17;17.90;73.30
32614;DHT22;19031;51.400;6.770;2022-07-24T00:13:43;17.90;64.70
32614;DHT22;19031;51.400;6.770;2022-07-24T00:16:08;17.80;62.30
32614;DHT22;19031;51.400;6.770;2022-07-24T00:18:34;17.70;63.90
32614;DHT22;19031;51.400;6.770;2022-07-24T00:21:00;17.80;67.60
32614;DHT22;19031;51.400;6.770;2022-07-24T00:23:26;17.70;67.30
32614;DHT22;19031;51.400;6.770;2022-07-24T00:25:53;17.70;64.40
32614;DHT22;19031;51.400;6.770;2022-07-24T00:28:19;17.60;66.60
32614;DHT22;19031;51.400;6.770;2022-07-24T00:30:45;17.50;69.50
32614;DHT22;19031;51.400;6.770;2022-07-24T00:33:10;17.50;66.40
32614;DHT22;19031;51.400;6.770;2022-07-24T00:35:36;17.50;69.00
32614;DHT22;19031;51.400;6.770;2022-07-24T00:38:03;17.50;68.90
32614;DHT22;19031;51.400;6.770;2022-07-24T00:40:29;17.40;70.20
32614;DHT22;19031;51.400;6.770;2022-07-24T00:42:56;17.40;75.70
32614;DHT22;19031;51.400;6.770;2022-07-24T00:45:22;17.30;74.10
32614;DHT22;19031;51.400;6.770;2022-07-24T00:47:47;17.30;78.20
32614;DHT22;19031;51.400;6.770;2022-07-24T00:50:13;17.20;78.50
32614;DHT22;19031;51.400;6.770;2022-07-24T00:52:39;17.20;84.50
32614;DHT22;19031;51.400;6.770;2022-07-24T00:55:05;17.10;91.10
32614;DHT22;19031;51.400;6.770;2022-07-24T00:57:31;17.10;87.70
32614;DHT22;19031;51.400;6.770;2022-07-24T00:59:57;17.10;82.80
32614;DHT22;19031;51.400;6.770;2022-07-24T01:02:23;17.10;87.50
32614;DHT22;19031;51.400;6.770;2022-07-24T01:04:49;17.10;91.80
32614;DHT22;19031;51.400;6.770;2022-07-24T01:07:15;17.00;91.80
32614;DHT22;19031;51.400;6.770;2022-07-24T01:09:41;17.00;92.90
32614;DHT22;19031;51.400;6.770;2022-07-24T01:12:07;16.90;93.00
32614;DHT22;19031;51.400;6.770;2022-07-24T01:14:33;16.90;93.60
32614;DHT22;19031;51.400;6.770;2022-07-24T01:16:59;16.90;92.20
32614;DHT22;19031;51.400;6.770;2022-07-24T01:19:25;16.90;91.70
32614;DHT22;19031;51.400;6.770;2022-07-24T01:21:52;16.80;93.30
32614;DHT22;19031;51.400;6.770;2022-07-24T01:24:19;16.80;91.50
32614;DHT22;19031;51.400;6.770;2022-07-24T01:26:46;16.80;92.70
32614;DHT22;19031;51.400;6.770;2022-07-24T01:29:12;16.70;92.70
32614;DHT22;19031;51.400;6.770;2022-07-24T01:31:38;16.70;92.10
32614;DHT22;19031;51.400;6.770;2022-07-24T01:34:04;16.70;92.70
32614;DHT22;19031;51.400;6.770;2022-07-24T01:36:30;16.70;91.80
32614;DHT22;19031;51.400;6.770;2022-07-24T01:38:56;16.50;91.40
32614;DHT22;19031;51.400;6.770;2022-07-24T01:41:22;16.60;92.50
32614;DHT22;19031;51.400;6.770;2022-07-24T01:43:47;16.60;93.20
32614;DHT22;19031;51.400;6.770;2022-07-24T01:46:13;16.50;93.30
32614;DHT22;19031;51.400;6.770;2022-07-24T01:48:41;16.50;94.50
32614;DHT22;19031;51.400;6.770;2022-07-24T01:51:07;16.60;95.00
32614;DHT22;19031;51.400;6.770;2022-07-24T01:53:33;16.60;94.50
32614;DHT22;19031;51.400;6.770;2022-07-24T01:55:58;16.50;92.70
32614;DHT22;19031;51.400;6.770;2022-07-24T01:58:24;16.50;92.40
32614;DHT22;19031;51.400;6.770;2022-07-24T02:00:50;16.50;92.40
32614;DHT22;19031;51.400;6.770;2022-07-24T02:03:16;16.50;94.80
32614;DHT22;19031;51.400;6.770;2022-07-24T02:05:42;16.50;94.60
32614;DHT22;19031;51.400;6.770;2022-07-24T02:08:07;16.50;94.80
32614;DHT22;19031;51.400;6.770;2022-07-24T02:10:33;16.40;94.10
32614;DHT22;19031;51.400;6.770;2022-07-24T02:12:59;16.50;94.70
32614;DHT22;19031;51.400;6.770;2022-07-24T02:15:25;16.40;93.50
32614;DHT22;19031;51.400;6.770;2022-07-24T02:17:53;16.40;92.60
32614;DHT22;19031;51.400;6.770;2022-07-24T02:20:19;16.40;93.80
32614;DHT22;19031;51.400;6.770;2022-07-24T02:22:45;16.40;93.10
32614;DHT22;19031;51.400;6.770;2022-07-24T02:25:11;16.30;92.00
32614;DHT22;19031;51.400;6.770;2022-07-24T02:27:37;16.30;91.60
32614;DHT22;19031;51.400;6.770;2022-07-24T02:30:05;16.30;92.70
32614;DHT22;19031;51.400;6.770;2022-07-24T02:32:32;16.30;92.50
32614;DHT22;19031;51.400;6.770;2022-07-24T02:34:57;16.30;93.90
32614;DHT22;19031;51.400;6.770;2022-07-24T02:37:23;16.20;95.80
32614;DHT22;19031;51.400;6.770;2022-07-24T02:39:49;16.20;98.00
32614;DHT22;19031;51.400;6.770;2022-07-24T02:42:14;16.20;96.60
32614;DHT22;19031;51.400;6.770;2022-07-24T02:44:40;16.20;96.00
32614;DHT22;19031;51.400;6.770;2022-07-24T02:47:06;16.10;97.20
32614;DHT22;19031;51.400;6.770;2022-07-24T02:49:31;16.20;97.00
32614;DHT22;19031;51.400;6.770;2022-07-24T02:51:57;16.20;95.90
32614;DHT22;19031;51.400;6.770;2022-07-24T02:54:22;16.20;95.40
32614;DHT22;19031;51.400;6.770;2022-07-24T02:56:48;16.20;97.00
32614;DHT22;19031;51.400;6.770;2022-07-24T02:59:14;16.10;97.10
32614;DHT22;19031;51.400;6.770;2022-07-24T03:01:40;16.10;97.00
32614;DHT22;19031;51.400;6.770;2022-07-24T03:04:06;16.10;97.30
32614;DHT22;19031;51.400;6.770;2022-07-24T03:06:32;16.10;95.20
32614;DHT22;19031;51.400;6.770;2022-07-24T03:08:57;16.10;95.80
32614;DHT22;19031;51.400;6.770;2022-07-24T03:11:23;16.10;96.10
32614;DHT22;19031;51.400;6.770;2022-07-24T03:13:48;16.10;96.40
32614;DHT22;19031;51.400;6.770;2022-07-24T03:16:14;16.10;97.10
32614;DHT22;19031;51.400;6.770;2022-07-24T03:18:42;16.10;97.40
32614;DHT22;19031;51.400;6.770;2022-07-24T03:21:12;16.10;96.30
32614;DHT22;19031;51.400;6.770;2022-07-24T03:23:38;16.10;96.50
32614;DHT22;19031;51.400;6.770;2022-07-24T03:26:04;16.10;96.50
32614;DHT22;19031;51.400;6.770;2022-07-24T03:28:29;16.10;96.30
32614;DHT22;19031;51.400;6.770;2022-07-24T03:30:55;16.10;96.50
32614;DHT22;19031;51.400;6.770;2022-07-24T03:33:21;16.10;96.60
32614;DHT22;19031;51.400;6.770;2022-07-24T03:35:46;16.10;96.10
32614;DHT22;19031;51.400;6.770;2022-07-24T03:38:12;16.10;95.70
32614;DHT22;19031;51.400;6.770;2022-07-24T03:40:38;16.10;95.00
32614;DHT22;19031;51.400;6.770;2022-07-24T03:43:04;16.10;94.80
32614;DHT22;19031;51.400;6.770;2022-07-24T03:45:29;16.10;95.10
32614;DHT22;19031;51.400;6.770;2022-07-24T03:47:55;16.00;96.00
32614;DHT22;19031;51.400;6.770;2022-07-24T03:50:20;16.00;95.80
32614;DHT22;19031;51.400;6.770;2022-07-24T03:52:46;16.10;96.50
32614;DHT22;19031;51.400;6.770;2022-07-24T03:55:12;16.10;96.10
32614;DHT22;19031;51.400;6.770;2022-07-24T03:57:37;16.00;97.20
32614;DHT22;19031;51.400;6.770;2022-07-24T04:00:05;15.90;98.30
32614;DHT22;19031;51.400;6.770;2022-07-24T04:02:31;16.00;98.10
32614;DHT22;19031;51.400;6.770;2022-07-24T04:04:56;16.10;97.30
32614;DHT22;19031;51.400;6.770;2022-07-24T04:07:22;16.00;95.90
32614;DHT22;19031;51.400;6.770;2022-07-24T04:09:47;16.00;94.90
32614;DHT22;19031;51.400;6.770;2022-07-24T04:12:13;16.00;95.70
32614;DHT22;19031;51.400;6.770;2022-07-24T04:14:39;16.00;96.40
32614;DHT22;19031;51.400;6.770;2022-07-24T04:17:04;16.00;95.60
32614;DHT22;19031;51.400;6.770;2022-07-24T04:19:30;16.10;96.50
32614;DHT22;19031;51.400;6.770;2022-07-24T04:21:56;16.10;96.50
32614;DHT22;19031;51.400;6.770;2022-07-24T04:24:22;16.20;96.30
32614;DHT22;19031;51.400;6.770;2022-07-24T04:26:48;16.10;97.30
32614;DHT22;19031;51.400;6.770;2022-07-24T04:29:13;16.20;96.90
32614;DHT22;19031;51.400;6.770;2022-07-24T04:31:39;16.20;96.10
32614;DHT22;19031;51.400;6.770;2022-07-24T04:34:05;16.20;95.60
32614;DHT22;19031;51.400;6.770;2022-07-24T04:36:31;16.20;97.10
32614;DHT22;19031;51.400;6.770;2022-07-24T04:38:56;16.30;96.70
32614;DHT22;19031;51.400;6.770;2022-07-24T04:41:22;16.40;96.50
32614;DHT22;19031;51.400;6.770;2022-07-24T04:43:48;16.40;96.40
32614;DHT22;19031;51.400;6.770;2022-07-24T04:46:15;16.50;96.00
32614;DHT22;19031;51.400;6.770;2022-07-24T04:48:41;16.50;95.90
32614;DHT22;19031;51.400;6.770;2022-07-24T04:51:07;16.50;96.10
32614;DHT22;19031;51.400;6.770;2022-07-24T04:53:32;16.60;95.20
32614;DHT22;19031;51.400;6.770;2022-07-24T04:55:58;16.70;95.30
32614;DHT22;19031;51.400;6.770;2022-07-24T04:58:25;16.70;94.70
32614;DHT22;19031;51.400;6.770;2022-07-24T05:00:50;16.80;94.80
32614;DHT22;19031;51.400;6.770;2022-07-24T05:03:16;16.90;95.20
32614;DHT22;19031;51.400;6.770;2022-07-24T05:05:42;17.00;94.40
32614;DHT22;19031;51.400;6.770;2022-07-24T05:08:07;17.00;94.80
32614;DHT22;19031;51.400;6.770;2022-07-24T05:10:33;17.10;95.50
32614;DHT22;19031;51.400;6.770;2022-07-24T05:12:59;17.20;95.10
32614;DHT22;19031;51.400;6.770;2022-07-24T05:15:24;17.30;94.90
32614;DHT22;19031;51.400;6.770;2022-07-24T05:17:50;17.50;93.00
32614;DHT22;19031;51.400;6.770;2022-07-24T05:20:15;17.50;91.20
32614;DHT22;19031;51.400;6.770;2022-07-24T05:22:41;17.70;90.70
32614;DHT22;19031;51.400;6.770;2022-07-24T05:25:07;17.80;86.70
32614;DHT22;19031;51.400;6.770;2022-07-24T05:27:33;17.90;85.30
32614;DHT22;19031;51.400;6.770;2022-07-24T05:29:59;18.10;82.10
32614;DHT22;19031;51.400;6.770;2022-07-24T05:32:24;18.20;78.30
32614;DHT22;19031;51.400;6.770;2022-07-24T05:34:50;18.30;72.10
32614;DHT22;19031;51.400;6.770;2022-07-24T05:37:15;18.40;69.60
32614;DHT22;19031;51.400;6.770;2022-07-24T05:39:41;18.50;67.80
32614;DHT22;19031;51.400;6.770;2022-07-24T05:42:07;18.60;65.20
32614;DHT22;19031;51.400;6.770;2022-07-24T05:44:32;18.70;56.70
32614;DHT22;19031;51.400;6.770;2022-07-24T05:46:58;18.70;56.60
32614;DHT22;19031;51.400;6.770;2022-07-24T05:49:24;18.80;54.60
32614;DHT22;19031;51.400;6.770;2022-07-24T05:51:49;18.90;52.10
32614;DHT22;19031;51.400;6.770;2022-07-24T05:54:15;19.00;52.40
32614;DHT22;19031;51.400;6.770;2022-07-24T05:56:41;19.10;51.20
32614;DHT22;19031;51.400;6.770;2022-07-24T05:59:06;19.20;54.80
32614;DHT22;19031;51.400;6.770;2022-07-24T06:01:32;19.30;50.50
32614;DHT22;19031;51.400;6.770;2022-07-24T06:03:58;19.50;53.20
32614;DHT22;19031;51.400;6.770;2022-07-24T06:06:24;19.50;49.00
32614;DHT22;19031;51.400;6.770;2022-07-24T06:08:50;19.70;47.90
32614;DHT22;19031;51.400;6.770;2022-07-24T06:11:15;19.70;36.50
32614;DHT22;19031;51.400;6.770;2022-07-24T06:13:43;19.80;33.20
32614;DHT22;19031;51.400;6.770;2022-07-24T06:16:09;19.80;38.70
32614;DHT22;19031;51.400;6.770;2022-07-24T06:18:34;20.00;30.10
32614;DHT22;19031;51.400;6.770;2022-07-24T06:21:00;20.10;36.80
32614;DHT22;19031;51.400;6.770;2022-07-24T06:23:26;20.20;33.30
32614;DHT22;19031;51.400;6.770;2022-07-24T06:25:52;20.40;33.70
32614;DHT22;19031;51.400;6.770;2022-07-24T06:28:17;20.50;22.40
32614;DHT22;19031;51.400;6.770;2022-07-24T06:30:43;20.70;19.70
32614;DHT22;19031;51.400;6.770;2022-07-24T06:33:09;20.80;17.20
32614;DHT22;19031;51.400;6.770;2022-07-24T06:35:34;20.90;6.00
32614;DHT22;19031;51.400;6.770;2022-07-24T06:38:00;21.10;1.00
32614;DHT22;19031;51.400;6.770;2022-07-24T06:40:26;21.20;1.00
32614;DHT22;19031;51.400;6.770;2022-07-24T06:42:52;21.40;1.00
32614;DHT22;19031;51.400;6.770;2022-07-24T06:45:18;21.40;1.00
32614;DHT22;19031;51.400;6.770;2022-07-24T06:47:44;21.70;1.00
32614;DHT22;19031;51.400;6.770;2022-07-24T06:50:11;21.80;1.00
32614;DHT22;19031;51.400;6.770;2022-07-24T06:52:37;22.10;1.00
32614;DHT22;19031;51.400;6.770;2022-07-24T06:55:04;22.30;1.00
32614;DHT22;19031;51.400;6.770;2022-07-24T06:57:30;22.50;1.00
32614;DHT22;19031;51.400;6.770;2022-07-24T06:59:56;22.80;1.00
32614;DHT22;19031;51.400;6.770;2022-07-24T07:02:22;23.00;1.00
32614;DHT22;19031;51.400;6.770;2022-07-24T07:04:48;23.30;99.90
32614;DHT22;19031;51.400;6.770;2022-07-24T07:07:14;23.50;99.90
32614;DHT22;19031;51.400;6.770;2022-07-24T07:09:41;23.60;99.90
32614;DHT22;19031;51.400;6.770;2022-07-24T07:12:07;23.90;99.90
32614;DHT22;19031;51.400;6.770;2022-07-24T07:14:33;24.20;99.90
32614;DHT22;19031;51.400;6.770;2022-07-24T07:16:59;24.40;99.90
32614;DHT22;19031;51.400;6.770;2022-07-24T07:19:24;24.70;99.90
32614;DHT22;19031;51.400;6.770;2022-07-24T07:21:50;24.70;99.90
32614;DHT22;19031;51.400;6.770;2022-07-24T07:24:16;24.80;99.90
32614;DHT22;19031;51.400;6.770;2022-07-24T07:26:42;24.90;99.90
32614;DHT22;19031;51.400;6.770;2022-07-24T07:29:08;25.00;99.90
32614;DHT22;19031;51.400;6.770;2022-07-24T07:31:33;25.30;99.90
32614;DHT22;19031;51.400;6.770;2022-07-24T07:33:59;25.40;99.90
32614;DHT22;19031;51.400;6.770;2022-07-24T07:36:25;25.50;99.90
32614;DHT22;19031;51.400;6.770;2022-07-24T07:38:51;25.60;99.90
32614;DHT22;19031;51.400;6.770;2022-07-24T07:41:17;25.80;99.90
32614;DHT22;19031;51.400;6.770;2022-07-24T07:43:45;26.00;99.90
32614;DHT22;19031;51.400;6.770;2022-07-24T07:46:13;26.20;99.90
32614;DHT22;19031;51.400;6.770;2022-07-24T07:48:39;26.30;82.70
32614;DHT22;19031;51.400;6.770;2022-07-24T07:51:05;26.50;31.40
32614;DHT22;19031;51.400;6.770;2022-07-24T07:53:30;26.80;21.90
32614;DHT22;19031;51.400;6.770;2022-07-24T07:55:56;27.00;1.00
32614;DHT22;19031;51.400;6.770;2022-07-24T07:58:22;27.00;99.90
32614;DHT22;19031;51.400;6.770;2022-07-24T08:00:48;27.20;99.90
32614;DHT22;19031;51.400;6.770;2022-07-24T08:03:14;27.30;99.90
32614;DHT22;19031;51.400;6.770;2022-07-24T08:05:40;27.40;99.90
32614;DHT22;19031;51.400;6.770;2022-07-24T08:08:05;27.40;58.10
32614;DHT22;19031;51.400;6.770;2022-07-24T08:10:32;27.70;99.90
32614;DHT22;19031;51.400;6.770;2022-07-24T08:12:57;27.90;2.00
32614;DHT22;19031;51.400;6.770;2022-07-24T08:15:23;28.00;99.90
32614;DHT22;19031;51.400;6.770;2022-07-24T08:17:53;28.20;99.90
32614;DHT22;19031;51.400;6.770;2022-07-24T08:20:19;28.40;56.90
32614;DHT22;19031;51.400;6.770;2022-07-24T08:22:45;28.60;1.00
32614;DHT22;19031;51.400;6.770;2022-07-24T08:25:11;28.80;99.90
32614;DHT22;19031;51.400;6.770;2022-07-24T08:27:37;29.20;99.90
32614;DHT22;19031;51.400;6.770;2022-07-24T08:30:08;29.60;99.90
32614;DHT22;19031;51.400;6.770;2022-07-24T08:32:34;29.80;99.90
32614;DHT22;19031;51.400;6.770;2022-07-24T08:35:00;29.90;99.90
32614;DHT22;19031;51.400;6.770;2022-07-24T08:37:26;30.00;20.70
32614;DHT22;19031;51.400;6.770;2022-07-24T08:39:52;29.90;80.10
32614;DHT22;19031;51.400;6.770;2022-07-24T08:42:20;29.90;99.90
32614;DHT22;19031;51.400;6.770;2022-07-24T08:44:47;30.00;37.50
32614;DHT22;19031;51.400;6.770;2022-07-24T08:47:15;30.10;1.00
32614;DHT22;19031;51.400;6.770;2022-07-24T08:49:41;30.40;99.90
32614;DHT22;19031;51.400;6.770;2022-07-24T08:52:09;30.60;99.90
32614;DHT22;19031;51.400;6.770;2022-07-24T08:54:36;30.80;99.90
32614;DHT22;19031;51.400;6.770;2022-07-24T08:57:03;31.00;99.90
32614;DHT22;19031;51.400;6.770;2022-07-24T08:59:29;31.10;99.90
32614;DHT22;19031;51.400;6.770;2022-07-24T09:01:54;31.20;99.90
32614;DHT22;19031;51.400;6.770;2022-07-24T09:04:40;31.40;99.90
32614;DHT22;19031;51.400;6.770;2022-07-24T09:07:14;31.50;99.90
32614;DHT22;19031;51.400;6.770;2022-07-24T09:09:41;31.40;1.00
32614;DHT22;19031;51.400;6.770;2022-07-24T09:12:08;31.50;30.10
32614;DHT22;19031;51.400;6.770;2022-07-24T09:14:36;31.60;1.00
32614;DHT22;19031;51.400;6.770;2022-07-24T09:17:08;31.60;1.00
32614;DHT22;19031;51.400;6.770;2022-07-24T09:19:47;31.50;1.00
32614;DHT22;19031;51.400;6.770;2022-07-24T09:25:05;32.20;99.90
32614;DHT22;19031;51.400;6.770;2022-07-24T09:27:31;32.60;99.90
32614;DHT22;19031;51.400;6.770;2022-07-24T09:29:57;33.00;99.90
32614;DHT22;19031;51.400;6.770;2022-07-24T09:32:23;32.90;99.90
32614;DHT22;19031;51.400;6.770;2022-07-24T09:34:52;33.00;99.90
32614;DHT22;19031;51.400;6.770;2022-07-24T09:37:19;33.00;99.90
32614;DHT22;19031;51.400;6.770;2022-07-24T09:39:46;32.90;99.90
32614;DHT22;19031;51.400;6.770;2022-07-24T09:42:13;33.00;84.00
32614;DHT22;19031;51.400;6.770;2022-07-24T09:44:39;33.20;43.90
32614;DHT22;19031;51.400;6.770;2022-07-24T09:47:10;33.30;13.80
32614;DHT22;19031;51.400;6.770;2022-07-24T09:49:37;33.30;2.60
32614;DHT22;19031;51.400;6.770;2022-07-24T09:52:15;33.30;39.00
32614;DHT22;19031;51.400;6.770;2022-07-24T09:54:44;33.10;1.00
32614;DHT22;19031;51.400;6.770;2022-07-24T09:59:50;33.30;18.80
32614;DHT22;19031;51.400;6.770;2022-07-24T10:02:18;33.40;1.00
32614;DHT22;19031;51.400;6.770;2022-07-24T10:04:45;33.60;1.00
32614;DHT22;19031;51.400;6.770;2022-07-24T10:07:12;33.60;1.00
32614;DHT22;19031;51.400;6.770;2022-07-24T10:09:47;33.60;99.90
32614;DHT22;19031;51.400;6.770;2022-07-24T10:12:21;33.80;1.00
32614;DHT22;19031;51.400;6.770;2022-07-24T10:14:50;34.00;99.90
32614;DHT22;19031;51.400;6.770;2022-07-24T10:17:16;34.30;99.90
32614;DHT22;19031;51.400;6.770;2022-07-24T10:19:45;34.20;99.90
32614;DHT22;19031;51.400;6.770;2022-07-24T10:22:13;34.40;99.90
32614;DHT22;19031;51.400;6.770;2022-07-24T10:27:33;34.70;99.90
32614;DHT22;19031;51.400;6.770;2022-07-24T10:30:06;34.90;99.90
32614;DHT22;19031;51.400;6.770;2022-07-24T10:32:33;35.10;99.90
32614;DHT22;19031;51.400;6.770;2022-07-24T10:40:33;36.00;99.90
32614;DHT22;19031;51.400;6.770;2022-07-24T10:45:43;36.40;33.50
32614;DHT22;19031;51.400;6.770;2022-07-24T10:53:25;37.00;1.00
32614;DHT22;19031;51.400;6.770;2022-07-24T10:55:51;37.40;1.00
32614;DHT22;19031;51.400;6.770;2022-07-24T10:58:17;37.60;1.00
32614;DHT22;19031;51.400;6.770;2022-07-24T11:00:50;37.50;1.00
32614;DHT22;19031;51.400;6.770;2022-07-24T11:03:29;37.70;1.00
32614;DHT22;19031;51.400;6.770;2022-07-24T11:06:40;37.50;99.90
32614;DHT22;19031;51.400;6.770;2022-07-24T11:09:06;37.50;99.90
32614;DHT22;19031;51.400;6.770;2022-07-24T11:11:31;37.20;99.90
32614;DHT22;19031;51.400;6.770;2022-07-24T11:13:57;37.10;99.90
32614;DHT22;19031;51.400;6.770;2022-07-24T11:16:27;36.50;99.90
32614;DHT22;19031;51.400;6.770;2022-07-24T11:21:39;35.70;99.90
32614;DHT22;19031;51.400;6.770;2022-07-24T11:26:54;35.90;99.90
32614;DHT22;19031;51.400;6.770;2022-07-24T11:29:39;36.40;99.90
32614;DHT22;19031;51.400;6.770;2022-07-24T11:32:12;36.60;99.90
32614;DHT22;19031;51.400;6.770;2022-07-24T11:34:49;36.70;99.90
32614;DHT22;19031;51.400;6.770;2022-07-24T11:37:15;36.90;99.90
32614;DHT22;19031;51.400;6.770;2022-07-24T11:39:43;37.20;99.90
32614;DHT22;19031;51.400;6.770;2022-07-24T11:42:12;37.30;99.90
32614;DHT22;19031;51.400;6.770;2022-07-24T11:44:43;37.20;99.90
32614;DHT22;19031;51.400;6.770;2022-07-24T11:52:22;36.90;99.90
32614;DHT22;19031;51.400;6.770;2022-07-24T11:54:51;36.80;99.90
32614;DHT22;19031;51.400;6.770;2022-07-24T11:57:18;36.60;99.90
32614;DHT22;19031;51.400;6.770;2022-07-24T11:59:45;36.90;99.90
32614;DHT22;19031;51.400;6.770;2022-07-24T12:02:11;37.10;99.90
32614;DHT22;19031;51.400;6.770;2022-07-24T12:04:39;37.70;99.90
32614;DHT22;19031;51.400;6.770;2022-07-24T12:07:06;38.10;99.90
32614;DHT22;19031;51.400;6.770;2022-07-24T12:09:42;38.30;99.90
32614;DHT22;19031;51.400;6.770;2022-07-24T12:12:36;38.50;99.90
32614;DHT22;19031;51.400;6.770;2022-07-24T12:15:11;38.90;99.90
32614;DHT22;19031;51.400;6.770;2022-07-24T12:18:05;39.00;99.90
32614;DHT22;19031;51.400;6.770;2022-07-24T12:23:07;39.40;99.90
32614;DHT22;19031;51.400;6.770;2022-07-24T12:25:33;39.30;99.90
32614;DHT22;19031;51.400;6.770;2022-07-24T12:28:05;39.50;99.90
32614;DHT22;19031;51.400;6.770;2022-07-24T12:30:34;39.60;99.90
32614;DHT22;19031;51.400;6.770;2022-07-24T12:35:29;39.10;99.90
32614;DHT22;19031;51.400;6.770;2022-07-24T12:37:56;39.00;99.90
32614;DHT22;19031;51.400;6.770;2022-07-24T12:40:28;38.70;99.90
32614;DHT22;19031;51.400;6.770;2022-07-24T12:43:08;39.00;99.90
32614;DHT22;19031;51.400;6.770;2022-07-24T12:45:35;38.90;99.90
32614;DHT22;19031;51.400;6.770;2022-07-24T12:48:25;39.00;99.90
32614;DHT22;19031;51.400;6.770;2022-07-24T12:51:03;38.70;99.90
32614;DHT22;19031;51.400;6.770;2022-07-24T12:53:31;38.30;99.90
32614;DHT22;19031;51.400;6.770;2022-07-24T12:58:54;38.60;99.90
32614;DHT22;19031;51.400;6.770;2022-07-24T13:01:22;38.60;99.90
32614;DHT22;19031;51.400;6.770;2022-07-24T13:04:00;38.70;99.90
32614;DHT22;19031;51.400;6.770;2022-07-24T13:06:43;38.70;99.90
32614;DHT22;19031;51.400;6.770;2022-07-24T13:09:10;38.50;99.90
32614;DHT22;19031;51.400;6.770;2022-07-24T13:11:38;38.30;99.90
32614;DHT22;19031;51.400;6.770;2022-07-24T13:14:05;38.40;99.90
32614;DHT22;19031;51.400;6.770;2022-07-24T13:16:33;38.30;99.90
32614;DHT22;19031;51.400;6.770;2022-07-24T13:19:00;38.40;99.90
32614;DHT22;19031;51.400;6.770;2022-07-24T13:21:27;38.80;99.90
32614;DHT22;19031;51.400;6.770;2022-07-24T13:23:54;38.90;99.90
32614;DHT22;19031;51.400;6.770;2022-07-24T13:26:20;39.10;99.90
32614;DHT22;19031;51.400;6.770;2022-07-24T13:28:46;39.00;99.90
32614;DHT22;19031;51.400;6.770;2022-07-24T13:31:12;38.80;99.90
32614;DHT22;19031;51.400;6.770;2022-07-24T13:33:38;38.70;99.90
32614;DHT22;19031;51.400;6.770;2022-07-24T13:36:04;38.50;99.90
32614;DHT22;19031;51.400;6.770;2022-07-24T13:38:30;38.50;99.90
32614;DHT22;19031;51.400;6.770;2022-07-24T13:40:56;38.60;99.90
32614;DHT22;19031;51.400;6.770;2022-07-24T13:43:22;38.60;99.90
32614;DHT22;19031;51.400;6.770;2022-07-24T13:45:48;38.50;99.90
32614;DHT22;19031;51.400;6.770;2022-07-24T13:48:13;38.60;99.90
32614;DHT22;19031;51.400;6.770;2022-07-24T13:50:39;38.60;99.90
32614;DHT22;19031;51.400;6.770;2022-07-24T13:53:05;38.20;99.90
32614;DHT22;19031;51.400;6.770;2022-07-24T13:55:31;38.30;99.90
32614;DHT22;19031;51.400;6.770;2022-07-24T13:57:58;38.20;99.90
32614;DHT22;19031;51.400;6.770;2022-07-24T14:00:23;38.30;99.90
32614;DHT22;19031;51.400;6.770;2022-07-24T14:02:50;38.30;99.90
32614;DHT22;19031;51.400;6.770;2022-07-24T14:05:23;38.50;99.90
32614;DHT22;19031;51.400;6.770;2022-07-24T14:07:49;38.20;99.90
32614;DHT22;19031;51.400;6.770;2022-07-24T14:10:15;38.50;99.90
32614;DHT22;19031;51.400;6.770;2022-07-24T14:12:40;38.70;99.90
32614;DHT22;19031;51.400;6.770;2022-07-24T14:15:06;38.90;99.90
32614;DHT22;19031;51.400;6.770;2022-07-24T14:17:34;38.70;99.90
32614;DHT22;19031;51.400;6.770;2022-07-24T14:20:00;38.50;99.90
32614;DHT22;19031;51.400;6.770;2022-07-24T14:22:26;38.60;99.90
32614;DHT22;19031;51.400;6.770;2022-07-24T14:24:52;38.90;99.90
32614;DHT22;19031;51.400;6.770;2022-07-24T14:27:18;39.20;99.90
32614;DHT22;19031;51.400;6.770;2022-07-24T14:29:43;39.40;99.90
32614;DHT22;19031;51.400;6.770;2022-07-24T14:32:09;39.60;99.90
32614;DHT22;19031;51.400;6.770;2022-07-24T14:34:34;39.70;99.90
32614;DHT22;19031;51.400;6.770;2022-07-24T14:37:00;39.80;99.90
32614;DHT22;19031;51.400;6.770;2022-07-24T14:39:26;39.80;99.90
32614;DHT22;19031;51.400;6.770;2022-07-24T14:41:54;39.60;99.90
32614;DHT22;19031;51.400;6.770;2022-07-24T14:44:19;39.40;99.90
32614;DHT22;19031;51.400;6.770;2022-07-24T14:46:45;39.40;99.90
32614;DHT22;19031;51.400;6.770;2022-07-24T14:49:11;39.40;99.90
32614;DHT22;19031;51.400;6.770;2022-07-24T14:51:37;39.30;99.90
32614;DHT22;19031;51.400;6.770;2022-07-24T14:54:03;39.30;99.90
32614;DHT22;19031;51.400;6.770;2022-07-24T14:56:29;39.30;99.90
32614;DHT22;19031;51.400;6.770;2022-07-24T14:58:55;39.40;99.90
32614;DHT22;19031;51.400;6.770;2022-07-24T15:01:20;39.30;99.90
32614;DHT22;19031;51.400;6.770;2022-07-24T15:03:46;39.30;99.90
32614;DHT22;19031;51.400;6.770;2022-07-24T15:06:12;39.50;99.90
32614;DHT22;19031;51.400;6.770;2022-07-24T15:08:37;39.50;99.90
32614;DHT22;19031;51.400;6.770;2022-07-24T15:11:03;39.60;99.90
32614;DHT22;19031;51.400;6.770;2022-07-24T15:13:29;39.30;99.90
32614;DHT22;19031;51.400;6.770;2022-07-24T15:15:54;39.30;99.90
32614;DHT22;19031;51.400;6.770;2022-07-24T15:18:22;39.30;99.90
32614;DHT22;19031;51.400;6.770;2022-07-24T15:20:47;39.30;99.90
32614;DHT22;19031;51.400;6.770;2022-07-24T15:23:13;39.00;99.90
32614;DHT22;19031;51.400;6.770;2022-07-24T15:25:39;39.20;99.90
32614;DHT22;19031;51.400;6.770;2022-07-24T15:28:04;39.20;99.90
32614;DHT22;19031;51.400;6.770;2022-07-24T15:30:31;39.00;99.90
32614;DHT22;19031;51.400;6.770;2022-07-24T15:32:57;38.90;99.90
32614;DHT22;19031;51.400;6.770;2022-07-24T15:35:23;38.90;99.90
32614;DHT22;19031;51.400;6.770;2022-07-24T15:37:48;38.90;99.90
32614;DHT22;19031;51.400;6.770;2022-07-24T15:40:14;39.00;99.90
32614;DHT22;19031;51.400;6.770;2022-07-24T15:42:40;39.00;99.90
32614;DHT22;19031;51.400;6.770;2022-07-24T15:45:06;39.00;99.90
32614;DHT22;19031;51.400;6.770;2022-07-24T15:47:32;38.90;99.90
32614;DHT22;19031;51.400;6.770;2022-07-24T15:49:57;38.80;99.90
32614;DHT22;19031;51.400;6.770;2022-07-24T15:52:23;38.70;99.90
32614;DHT22;19031;51.400;6.770;2022-07-24T15:54:48;38.70;99.90
32614;DHT22;19031;51.400;6.770;2022-07-24T15:57:14;38.70;99.90
32614;DHT22;19031;51.400;6.770;2022-07-24T15:59:40;38.70;99.90
32614;DHT22;19031;51.400;6.770;2022-07-24T16:02:05;38.70;99.90
32614;DHT22;19031;51.400;6.770;2022-07-24T16:04:31;38.80;99.90
32614;DHT22;19031;51.400;6.770;2022-07-24T16:06:57;38.90;99.90
32614;DHT22;19031;51.400;6.770;2022-07-24T16:09:22;38.70;99.90
32614;DHT22;19031;51.400;6.770;2022-07-24T16:11:48;38.70;99.90